Time;durP1;ratioP1;P1;durP2;ratioP2;P2;SDS_P1;SDS_P2;PMS_P1;PMS_P2;Temp;Humidity;BMP_temperature;BMP_pressure;BME280_temperature;BME280_humidity;BME280_pressure;Samples;Min_cycle;Max_cycle;Signal;HPM_P1;HPM_P2
2021/01/02 00:00:22;;;;;;;10.32;7.20;;;4.90;81.00;;;;;;5034936;28;20022;-83
2021/01/02 00:03:06;;;;;;;9.32;7.28;;;4.90;81.00;;;;;;5033605;28;20061;-81
2021/01/02 00:05:44;;;;;;;7.85;6.53;;;4.80;80.40;;;;;;5033754;28;20033;-82
2021/01/02 00:08:15;;;;;;;8.35;6.35;;;4.80;80.30;;;;;;5039809;28;20021;-81
2021/01/02 00:11:15;;;;;;;7.38;5.70;;;4.80;80.50;;;;;;5051336;28;20531;-82
2021/01/02 00:14:08;;;;;;;6.20;5.20;;;4.90;80.80;;;;;;5033731;28;20021;-82
2021/01/02 00:16:54;;;;;;;5.63;5.00;;;4.80;79.60;;;;;;5033163;28;20029;-83
2021/01/02 00:19:35;;;;;;;5.50;4.82;;;4.80;79.80;;;;;;5033472;28;20104;-84
2021/01/02 00:22:33;;;;;;;5.30;4.70;;;4.80;78.90;;;;;;5033174;28;20038;-83
2021/01/02 00:25:03;;;;;;;5.10;4.60;;;4.80;78.90;;;;;;5032825;28;20471;-83
2021/01/02 00:27:44;;;;;;;5.70;4.32;;;4.80;79.00;;;;;;5052937;28;20021;-83
2021/01/02 00:30:34;;;;;;;5.47;4.70;;;4.80;79.80;;;;;;5054795;28;20378;-82
2021/01/02 00:33:13;;;;;;;4.40;3.97;;;4.80;79.20;;;;;;5042322;28;20029;-84
2021/01/02 00:35:41;;;;;;;4.22;3.60;;;4.80;78.30;;;;;;5052595;28;20032;-83
2021/01/02 00:38:07;;;;;;;3.78;3.40;;;4.80;78.30;;;;;;5052852;28;20037;-83
2021/01/02 00:40:38;;;;;;;4.18;3.65;;;4.80;79.00;;;;;;5034504;28;20486;-82
2021/01/02 00:43:04;;;;;;;4.30;3.72;;;4.90;78.70;;;;;;5033018;28;20112;-83
2021/01/02 00:45:32;;;;;;;4.05;3.60;;;4.90;79.00;;;;;;5032858;28;20503;-83
2021/01/02 00:47:58;;;;;;;4.38;3.97;;;4.90;79.10;;;;;;5034620;28;20031;-82
2021/01/02 00:50:28;;;;;;;5.28;4.38;;;4.90;79.40;;;;;;5033132;28;20510;-84
2021/01/02 00:53:03;;;;;;;3.90;3.50;;;4.90;79.30;;;;;;5033280;28;20044;-83
2021/01/02 00:55:49;;;;;;;3.75;3.45;;;4.90;78.70;;;;;;5032978;28;20049;-83
2021/01/02 00:58:36;;;;;;;4.72;3.83;;;5.00;79.10;;;;;;5032917;28;20493;-85
2021/01/02 01:01:07;;;;;;;4.40;4.00;;;5.00;78.60;;;;;;5032973;28;20060;-84
2021/01/02 01:04:07;;;;;;;3.90;3.50;;;5.00;79.10;;;;;;5033392;28;20486;-84
2021/01/02 01:06:38;;;;;;;4.05;3.40;;;5.00;78.50;;;;;;5032671;28;20087;-83
2021/01/02 01:09:05;;;;;;;3.97;3.58;;;5.00;79.10;;;;;;5032485;28;20037;-83
2021/01/02 01:11:37;;;;;;;3.83;3.40;;;5.00;79.00;;;;;;5032693;28;20021;-83
2021/01/02 01:14:04;;;;;;;4.05;3.58;;;5.00;79.40;;;;;;5033144;28;20060;-84
2021/01/02 01:16:44;;;;;;;4.03;3.63;;;5.00;78.70;;;;;;5032763;28;20096;-84
2021/01/02 01:19:18;;;;;;;4.25;3.45;;;5.00;79.20;;;;;;5032643;28;20060;-84
2021/01/02 01:21:45;;;;;;;3.90;3.50;;;5.00;79.20;;;;;;5033154;28;20049;-83
2021/01/02 01:24:13;;;;;;;4.47;4.07;;;5.00;78.60;;;;;;5031660;28;20017;-83
2021/01/02 01:26:50;;;;;;;3.50;3.20;;;5.00;78.60;;;;;;5031418;28;20091;-83
2021/01/02 01:29:21;;;;;;;4.10;3.70;;;5.00;78.90;;;;;;5032528;28;20116;-83
2021/01/02 01:31:54;;;;;;;4.28;3.78;;;5.00;79.10;;;;;;5033876;28;20029;-84
2021/01/02 01:34:21;;;;;;;3.78;3.45;;;5.00;78.40;;;;;;5032687;28;20026;-83
2021/01/02 01:36:48;;;;;;;3.95;3.60;;;5.00;78.80;;;;;;5033361;28;20048;-83
2021/01/02 01:39:14;;;;;;;3.90;3.50;;;5.00;78.30;;;;;;5032506;28;20033;-84
2021/01/02 01:41:44;;;;;;;4.18;3.78;;;4.90;78.60;;;;;;5032470;28;20049;-83
2021/01/02 01:44:10;;;;;;;4.32;3.92;;;4.90;78.40;;;;;;5032384;28;20532;-83
2021/01/02 01:46:53;;;;;;;5.00;3.67;;;5.00;79.00;;;;;;5033605;28;20071;-83
2021/01/02 01:49:31;;;;;;;5.07;3.75;;;5.00;78.90;;;;;;5031965;28;20109;-82
2021/01/02 01:52:11;;;;;;;4.40;3.42;;;5.00;79.10;;;;;;5032098;28;20810;-82
2021/01/02 01:54:40;;;;;;;4.45;4.00;;;5.00;79.30;;;;;;5031843;28;20029;-83
2021/01/02 01:57:06;;;;;;;4.78;4.22;;;5.00;78.60;;;;;;5049111;28;20104;-83
2021/01/02 01:59:57;;;;;;;4.80;4.30;;;5.00;78.80;;;;;;5036916;28;20399;-83
2021/01/02 02:02:44;;;;;;;5.82;3.97;;;5.00;78.30;;;;;;5032031;28;20051;-83
2021/01/02 02:05:16;;;;;;;4.53;3.88;;;5.00;78.50;;;;;;5031873;28;20033;-83
2021/01/02 02:08:00;;;;;;;5.57;4.63;;;5.00;78.90;;;;;;5032027;28;20885;-83
2021/01/02 02:10:31;;;;;;;5.35;4.85;;;5.00;79.00;;;;;;5031870;28;20104;-83
2021/01/02 02:13:18;;;;;;;7.78;5.50;;;5.00;79.20;;;;;;5031724;28;20018;-83
2021/01/02 02:15:54;;;;;;;9.07;5.88;;;5.00;79.00;;;;;;5030980;28;20051;-83
2021/01/02 02:18:26;;;;;;;7.53;5.18;;;5.00;79.00;;;;;;5034830;28;20017;-83
2021/01/02 02:20:57;;;;;;;5.43;4.45;;;5.00;79.10;;;;;;5035659;28;20459;-83
2021/01/02 02:23:40;;;;;;;6.13;4.80;;;5.00;78.80;;;;;;5036912;28;20021;-83
2021/01/02 02:26:18;;;;;;;6.68;5.07;;;5.00;78.70;;;;;;5015795;28;20029;-83
2021/01/02 02:29:02;;;;;;;6.50;5.22;;;5.10;79.30;;;;;;5015891;28;20034;-83
2021/01/02 02:31:29;;;;;;;6.82;3.92;;;5.00;78.60;;;;;;5015830;28;20087;-83
2021/01/02 02:34:00;;;;;;;5.13;4.63;;;5.00;78.80;;;;;;5015763;28;20384;-83
2021/01/02 02:36:29;;;;;;;6.18;4.88;;;5.00;78.90;;;;;;5015589;28;20025;-82
2021/01/02 02:38:58;;;;;;;4.80;4.30;;;5.00;78.70;;;;;;5037699;28;20030;-83
2021/01/02 02:41:44;;;;;;;5.00;4.50;;;5.00;78.80;;;;;;5035460;28;20498;-83
2021/01/02 02:44:11;;;;;;;4.93;4.32;;;5.00;79.10;;;;;;5035478;28;20049;-83
2021/01/02 02:46:44;;;;;;;4.80;4.30;;;5.00;79.20;;;;;;5035068;28;20074;-83
2021/01/02 02:49:16;;;;;;;4.90;4.40;;;5.00;79.10;;;;;;5036155;28;20064;-84
2021/01/02 02:51:47;;;;;;;5.03;4.53;;;5.10;79.20;;;;;;5035151;28;20025;-83
2021/01/02 02:54:13;;;;;;;5.30;4.60;;;5.10;79.40;;;;;;5035672;28;20059;-84
2021/01/02 02:56:39;;;;;;;6.65;5.28;;;5.10;79.30;;;;;;5035244;28;20123;-84
2021/01/02 02:59:05;;;;;;;7.38;5.57;;;5.10;79.30;;;;;;5035434;28;20025;-83
2021/01/02 03:01:31;;;;;;;9.40;6.40;;;5.10;79.30;;;;;;5035430;28;20029;-84
2021/01/02 03:03:58;;;;;;;10.73;6.85;;;5.10;79.20;;;;;;5035393;28;20022;-84
2021/01/02 03:06:24;;;;;;;10.60;7.35;;;5.10;79.50;;;;;;5036894;28;20029;-84
2021/01/02 03:08:53;;;;;;;8.60;6.47;;;5.10;79.70;;;;;;5035406;28;20029;-84
2021/01/02 03:11:26;;;;;;;7.63;5.72;;;5.10;79.70;;;;;;5036355;28;20025;-84
2021/01/02 03:13:53;;;;;;;7.57;5.60;;;5.10;79.70;;;;;;5035245;28;20088;-83
2021/01/02 03:16:20;;;;;;;5.50;4.90;;;5.10;79.70;;;;;;5035029;28;20057;-83
2021/01/02 03:18:46;;;;;;;6.05;5.35;;;5.10;79.60;;;;;;5035103;28;20430;-84
2021/01/02 03:21:12;;;;;;;6.35;4.63;;;5.00;79.40;;;;;;5034818;28;20021;-83
2021/01/02 03:23:47;;;;;;;6.18;4.93;;;5.10;79.70;;;;;;5034854;28;20387;-83
2021/01/02 03:26:16;;;;;;;5.78;4.97;;;5.00;79.40;;;;;;5034997;28;20025;-83
2021/01/02 03:28:52;;;;;;;6.05;4.90;;;5.00;79.40;;;;;;5034682;28;20061;-83
2021/01/02 03:31:19;;;;;;;7.07;5.22;;;5.00;79.50;;;;;;5034649;28;20040;-83
2021/01/02 03:33:45;;;;;;;5.53;4.65;;;4.90;79.10;;;;;;5035856;28;20030;-83
2021/01/02 03:36:11;;;;;;;5.45;4.40;;;4.90;79.30;;;;;;5034231;28;20447;-84
2021/01/02 03:38:38;;;;;;;6.38;4.55;;;4.80;78.90;;;;;;5034961;28;20112;-83
2021/01/02 03:41:04;;;;;;;5.57;4.85;;;4.80;78.90;;;;;;5034801;28;20022;-84
2021/01/02 03:43:30;;;;;;;7.30;5.47;;;4.80;78.20;;;;;;5035450;28;20067;-84
2021/01/02 03:45:56;;;;;;;4.82;4.32;;;4.70;78.00;;;;;;5041878;28;20120;-83
2021/01/02 03:48:22;;;;;;;6.40;4.80;;;4.60;77.80;;;;;;5040560;28;20036;-84
2021/01/02 03:50:49;;;;;;;5.85;4.82;;;4.60;76.70;;;;;;5034632;28;20022;-83
2021/01/02 03:53:14;;;;;;;8.63;5.15;;;4.50;76.90;;;;;;5033784;28;20026;-82
2021/01/02 03:55:40;;;;;;;5.35;4.40;;;4.40;76.80;;;;;;5049426;28;20068;-83
2021/01/02 03:58:06;;;;;;;6.53;4.70;;;4.40;77.50;;;;;;5035080;28;20025;-83
2021/01/02 04:00:32;;;;;;;5.53;4.75;;;4.40;77.40;;;;;;5034908;28;20027;-84
2021/01/02 04:02:59;;;;;;;5.10;4.50;;;4.30;76.90;;;;;;5033463;28;20030;-79
2021/01/02 04:05:25;;;;;;;6.75;4.88;;;4.30;77.10;;;;;;5033596;28;20113;-79
2021/01/02 04:07:51;;;;;;;6.28;4.63;;;4.20;76.70;;;;;;5033466;28;20113;-80
2021/01/02 04:10:16;;;;;;;5.45;4.60;;;4.30;77.30;;;;;;5033539;28;20029;-80
2021/01/02 04:12:42;;;;;;;7.22;5.20;;;4.20;77.70;;;;;;5033639;28;20039;-79
2021/01/02 04:15:08;;;;;;;6.05;4.80;;;4.20;77.60;;;;;;5033424;28;20037;-79
2021/01/02 04:17:34;;;;;;;5.90;4.95;;;4.20;77.90;;;;;;5033252;28;20021;-79
2021/01/02 04:20:00;;;;;;;6.57;4.93;;;4.10;77.60;;;;;;5033175;28;20486;-79
2021/01/02 04:22:26;;;;;;;7.95;5.40;;;4.10;78.00;;;;;;5033309;28;20029;-79
2021/01/02 04:24:51;;;;;;;8.30;6.10;;;4.00;78.30;;;;;;5034626;28;20022;-79
2021/01/02 04:27:17;;;;;;;10.18;7.78;;;3.90;78.40;;;;;;5034371;28;20029;-79
2021/01/02 04:29:43;;;;;;;12.07;8.18;;;3.90;78.60;;;;;;5033123;28;20379;-79
2021/01/02 04:32:08;;;;;;;12.93;8.13;;;3.80;78.80;;;;;;5033205;28;20406;-79
2021/01/02 04:34:34;;;;;;;13.23;7.70;;;3.70;79.00;;;;;;5033349;28;20029;-80
2021/01/02 04:37:00;;;;;;;12.15;8.07;;;3.60;79.10;;;;;;5034299;28;20558;-79
2021/01/02 04:39:26;;;;;;;11.90;7.32;;;3.50;79.30;;;;;;5033187;28;20025;-79
2021/01/02 04:41:54;;;;;;;13.40;7.47;;;3.40;79.50;;;;;;5032817;28;20033;-80
2021/01/02 04:44:20;;;;;;;10.25;7.57;;;3.40;79.90;;;;;;5033815;28;20024;-80
2021/01/02 04:46:48;;;;;;;11.00;7.68;;;3.30;80.00;;;;;;5032906;28;20383;-79
2021/01/02 04:49:14;;;;;;;11.57;7.82;;;3.20;80.10;;;;;;5034499;28;20021;-79
2021/01/02 04:51:40;;;;;;;16.98;7.97;;;3.20;80.50;;;;;;5032914;28;20022;-79
2021/01/02 04:54:07;;;;;;;11.75;7.80;;;3.10;80.40;;;;;;5033059;28;20033;-80
2021/01/02 04:56:40;;;;;;;15.35;8.40;;;3.10;80.70;;;;;;5034013;28;20057;-80
2021/01/02 04:59:10;;;;;;;15.40;9.07;;;3.00;81.10;;;;;;5028353;28;20028;-79
2021/01/02 05:01:41;;;;;;;13.80;8.40;;;2.90;81.10;;;;;;5032968;28;20108;-79
2021/01/02 05:04:07;;;;;;;13.45;7.28;;;2.90;81.00;;;;;;5032804;28;20467;-78
2021/01/02 05:06:33;;;;;;;11.07;7.60;;;2.80;81.20;;;;;;5032911;28;20033;-79
2021/01/02 05:08:59;;;;;;;11.73;8.27;;;2.80;81.50;;;;;;5032878;28;20467;-79
2021/01/02 05:11:26;;;;;;;11.73;8.90;;;2.80;81.90;;;;;;5032766;28;20475;-79
2021/01/02 05:14:00;;;;;;;12.18;8.52;;;2.80;81.90;;;;;;5034011;28;20056;-80
2021/01/02 05:16:36;;;;;;;13.02;9.10;;;2.80;81.80;;;;;;5032517;28;20029;-81
2021/01/02 05:19:06;;;;;;;11.93;8.63;;;2.80;81.80;;;;;;5012954;28;20021;-79
2021/01/02 05:21:34;;;;;;;12.13;8.35;;;2.80;81.60;;;;;;5032413;28;20043;-79
2021/01/02 05:24:20;;;;;;;12.93;8.90;;;2.80;81.60;;;;;;5032419;28;20045;-78
2021/01/02 05:26:56;;;;;;;10.52;8.63;;;2.70;81.50;;;;;;5033846;28;20029;-79
2021/01/02 05:29:24;;;;;;;13.45;8.73;;;2.60;81.50;;;;;;5032620;28;20025;-79
2021/01/02 05:32:03;;;;;;;16.25;8.77;;;2.50;81.70;;;;;;5032528;28;20041;-79
2021/01/02 05:34:31;;;;;;;10.00;7.70;;;2.50;82.00;;;;;;5032820;28;20074;-78
2021/01/02 05:37:06;;;;;;;11.15;8.10;;;2.40;82.10;;;;;;5032757;28;20060;-78
2021/01/02 05:39:40;;;;;;;11.25;8.52;;;2.40;82.30;;;;;;5032398;28;20120;-78
2021/01/02 05:42:06;;;;;;;10.45;7.95;;;2.40;82.30;;;;;;5032443;28;20406;-79
2021/01/02 05:44:36;;;;;;;11.77;8.02;;;2.30;82.30;;;;;;5033722;28;20025;-79
2021/01/02 05:47:03;;;;;;;11.30;7.67;;;2.30;82.20;;;;;;5032140;28;20494;-78
2021/01/02 05:49:30;;;;;;;12.27;8.25;;;2.20;82.20;;;;;;5033078;28;20337;-78
2021/01/02 05:52:01;;;;;;;12.07;8.73;;;2.10;82.20;;;;;;5031631;28;20421;-78
2021/01/02 05:54:28;;;;;;;13.57;8.70;;;2.10;82.30;;;;;;5031906;28;20053;-78
2021/01/02 05:57:03;;;;;;;12.00;8.43;;;2.00;82.60;;;;;;5031552;28;20511;-79
2021/01/02 05:59:30;;;;;;;11.77;8.95;;;1.90;82.60;;;;;;5032307;28;20039;-78
2021/01/02 06:01:56;;;;;;;21.10;11.07;;;1.80;82.70;;;;;;5031853;28;20029;-78
2021/01/02 06:04:21;;;;;;;17.10;12.30;;;1.80;82.70;;;;;;5031728;28;20030;-78
2021/01/02 06:07:05;;;;;;;20.02;12.25;;;1.80;82.80;;;;;;5031968;28;20120;-78
2021/01/02 06:09:33;;;;;;;24.75;12.68;;;1.80;82.90;;;;;;5032139;28;20728;-78
2021/01/02 06:12:02;;;;;;;24.27;14.30;;;1.70;83.30;;;;;;5033060;28;20030;-78
2021/01/02 06:14:33;;;;;;;24.58;13.90;;;1.70;83.50;;;;;;5031832;28;20117;-78
2021/01/02 06:17:05;;;;;;;28.63;16.30;;;1.60;83.70;;;;;;5032848;28;20026;-78
2021/01/02 06:19:32;;;;;;;29.73;15.18;;;1.60;83.90;;;;;;5033149;28;20048;-79
2021/01/02 06:21:57;;;;;;;26.35;14.95;;;1.50;83.90;;;;;;5031814;28;20028;-79
2021/01/02 06:24:24;;;;;;;25.33;14.40;;;1.50;84.00;;;;;;5031818;28;20108;-79
2021/01/02 06:26:52;;;;;;;25.63;14.07;;;1.50;83.90;;;;;;5032718;28;20033;-79
2021/01/02 06:29:17;;;;;;;24.73;13.48;;;1.50;83.90;;;;;;5031710;28;20495;-79
2021/01/02 06:31:43;;;;;;;25.83;14.98;;;1.50;84.00;;;;;;5031677;28;20044;-79
2021/01/02 06:34:11;;;;;;;20.27;13.68;;;1.40;84.30;;;;;;5031443;28;20052;-79
2021/01/02 06:36:39;;;;;;;29.33;17.10;;;1.50;84.40;;;;;;5031899;28;20467;-79
2021/01/02 06:39:20;;;;;;;40.88;21.60;;;1.50;84.60;;;;;;5031468;28;20053;-79
2021/01/02 06:41:47;;;;;;;39.08;19.55;;;1.60;84.80;;;;;;5031466;28;20471;-79
2021/01/02 06:44:41;;;;;;;43.28;22.17;;;1.60;85.10;;;;;;5031456;28;20030;-79
2021/01/02 06:47:22;;;;;;;39.72;22.13;;;1.70;85.50;;;;;;5031663;28;20032;-79
2021/01/02 06:49:50;;;;;;;23.95;17.50;;;1.80;85.50;;;;;;5033267;28;20022;-79
2021/01/02 06:52:29;;;;;;;26.23;16.45;;;1.90;85.20;;;;;;5031956;28;20029;-79
2021/01/02 06:55:18;;;;;;;22.33;14.53;;;2.10;85.20;;;;;;5031885;28;20036;-80
2021/01/02 06:57:44;;;;;;;30.98;17.15;;;2.20;84.80;;;;;;5031904;28;20345;-80
2021/01/02 07:00:25;;;;;;;42.67;25.35;;;2.30;84.50;;;;;;5031889;28;20108;-79
2021/01/02 07:02:52;;;;;;;35.80;22.92;;;2.40;84.50;;;;;;5032378;28;20017;-79
2021/01/02 07:05:49;;;;;;;29.10;16.77;;;2.50;84.20;;;;;;5036217;28;20025;-79
2021/01/02 07:08:41;;;;;;;36.08;21.00;;;2.50;84.10;;;;;;5035387;28;20025;-79
2021/01/02 07:11:19;;;;;;;35.45;15.20;;;2.60;83.90;;;;;;5017698;28;20103;-79
2021/01/02 07:13:45;;;;;;;23.30;13.93;;;2.70;83.70;;;;;;5036704;28;20021;-79
2021/01/02 07:16:32;;;;;;;24.27;13.75;;;2.70;83.30;;;;;;5035046;28;20022;-80
2021/01/02 07:18:58;;;;;;;23.55;13.25;;;2.80;82.90;;;;;;5035166;28;20049;-80
2021/01/02 07:21:37;;;;;;;21.70;12.38;;;2.90;82.80;;;;;;5035538;28;20118;-80
2021/01/02 07:24:22;;;;;;;25.85;14.57;;;2.90;82.40;;;;;;5036225;28;20025;-79
2021/01/02 07:26:54;;;;;;;21.90;12.90;;;3.00;82.10;;;;;;5036154;28;20425;-79
2021/01/02 07:29:20;;;;;;;22.48;13.30;;;3.00;82.00;;;;;;5035041;28;20164;-80
2021/01/02 07:31:46;;;;;;;22.60;13.85;;;3.10;81.90;;;;;;5035513;28;20067;-79
2021/01/02 07:34:23;;;;;;;23.95;15.38;;;3.10;81.50;;;;;;5034882;28;20022;-79
2021/01/02 07:36:51;;;;;;;25.63;15.55;;;3.20;81.50;;;;;;5034675;28;20025;-79
2021/01/02 07:39:18;;;;;;;19.65;12.65;;;3.20;81.00;;;;;;5034795;28;20025;-79
2021/01/02 07:41:44;;;;;;;21.50;13.70;;;3.30;81.00;;;;;;5034724;28;20121;-79
2021/01/02 07:44:11;;;;;;;17.63;10.95;;;3.30;81.20;;;;;;5034723;28;20471;-79
2021/01/02 07:46:44;;;;;;;15.85;10.10;;;3.40;81.30;;;;;;5034614;28;20048;-80
2021/01/02 07:49:11;;;;;;;16.65;9.65;;;3.40;80.60;;;;;;5035723;28;20033;-80
2021/01/02 07:51:38;;;;;;;53.30;23.13;;;3.40;80.70;;;;;;5034015;28;20109;-80
2021/01/02 07:54:04;;;;;;;18.77;10.68;;;3.40;80.80;;;;;;5034100;28;20096;-79
2021/01/02 07:56:41;;;;;;;15.40;9.57;;;3.40;80.60;;;;;;5033656;28;20483;-79
2021/01/02 07:59:27;;;;;;;14.63;8.85;;;3.50;80.90;;;;;;5034029;28;20021;-80
2021/01/02 08:01:57;;;;;;;14.23;8.60;;;3.50;80.20;;;;;;5033877;28;20914;-80
2021/01/02 08:04:24;;;;;;;14.00;9.32;;;3.60;80.50;;;;;;5033646;28;20068;-80
2021/01/02 08:06:55;;;;;;;17.45;9.80;;;3.60;81.10;;;;;;5034314;28;20394;-80
2021/01/02 08:09:21;;;;;;;15.35;8.93;;;3.70;80.20;;;;;;5033615;28;20559;-79
2021/01/02 08:12:04;;;;;;;18.08;10.52;;;3.70;80.50;;;;;;5033563;28;20033;-80
2021/01/02 08:14:32;;;;;;;15.32;9.98;;;3.80;79.70;;;;;;5033756;28;20049;-80
2021/01/02 08:17:02;;;;;;;15.15;9.35;;;3.80;79.80;;;;;;5033477;28;20025;-80
2021/01/02 08:19:47;;;;;;;13.00;8.63;;;3.70;79.20;;;;;;5034764;28;20035;-81
2021/01/02 08:22:36;;;;;;;12.85;8.73;;;3.70;79.20;;;;;;5033456;28;20040;-79
2021/01/02 08:25:10;;;;;;;13.23;8.57;;;3.70;79.30;;;;;;5033517;28;20394;-80
2021/01/02 08:27:36;;;;;;;15.20;8.98;;;3.80;79.50;;;;;;5033315;28;20032;-80
2021/01/02 08:30:09;;;;;;;17.73;9.95;;;3.80;79.60;;;;;;5033213;28;20030;-80
2021/01/02 08:32:38;;;;;;;15.85;9.30;;;3.80;79.50;;;;;;5033287;28;20463;-80
2021/01/02 08:35:27;;;;;;;13.27;8.35;;;3.90;79.50;;;;;;5033159;28;20025;-79
2021/01/02 08:38:01;;;;;;;13.18;7.53;;;3.90;78.60;;;;;;5026709;28;20041;-80
2021/01/02 08:40:27;;;;;;;13.65;7.78;;;3.90;79.00;;;;;;5033226;28;20032;-80
2021/01/02 08:42:53;;;;;;;12.20;8.20;;;3.90;79.50;;;;;;5033031;28;20030;-79
2021/01/02 08:45:30;;;;;;;13.82;8.13;;;3.90;79.40;;;;;;5033090;28;20030;-79
2021/01/02 08:48:12;;;;;;;11.13;7.20;;;4.00;79.30;;;;;;5033356;28;20021;-79
2021/01/02 08:50:41;;;;;;;9.75;6.93;;;4.00;79.00;;;;;;5033512;28;20083;-80
2021/01/02 08:53:26;;;;;;;12.65;8.30;;;4.00;78.70;;;;;;5033381;28;20040;-79
2021/01/02 08:55:52;;;;;;;11.15;7.57;;;4.00;78.80;;;;;;5032928;28;20050;-80
2021/01/02 08:58:32;;;;;;;13.35;8.07;;;4.00;78.60;;;;;;5034519;28;20531;-80
2021/01/02 09:00:58;;;;;;;11.88;7.25;;;4.10;78.30;;;;;;5034296;28;20363;-79
2021/01/02 09:03:24;;;;;;;17.85;8.90;;;4.10;78.80;;;;;;5033168;28;20049;-79
2021/01/02 09:05:49;;;;;;;12.50;7.85;;;4.10;78.70;;;;;;5033210;28;20105;-79
2021/01/02 09:08:20;;;;;;;15.90;9.30;;;4.10;78.40;;;;;;5033578;28;20033;-79
2021/01/02 09:10:47;;;;;;;11.45;7.70;;;4.10;78.60;;;;;;5033319;28;20029;-80
2021/01/02 09:13:24;;;;;;;13.52;7.72;;;4.20;78.30;;;;;;5034757;28;20033;-79
2021/01/02 09:15:57;;;;;;;13.27;9.02;;;4.20;78.50;;;;;;5033778;28;20087;-80
2021/01/02 09:18:32;;;;;;;9.35;6.57;;;4.30;78.70;;;;;;5033785;28;20142;-80
2021/01/02 09:20:59;;;;;;;11.68;6.85;;;4.30;78.70;;;;;;5033117;28;20401;-79
2021/01/02 09:23:36;;;;;;;21.92;13.35;;;4.40;78.40;;;;;;5032766;28;20485;-80
2021/01/02 09:26:46;;;;;;;13.77;8.88;;;4.40;77.70;;;;;;5032350;28;20080;-80
2021/01/02 09:29:13;;;;;;;11.53;7.67;;;4.40;77.50;;;;;;5024313;28;20107;-79
2021/01/02 09:31:39;;;;;;;12.38;8.10;;;4.40;77.80;;;;;;5033958;28;20026;-80
2021/01/02 09:34:05;;;;;;;22.48;13.52;;;4.50;77.80;;;;;;5032676;28;20091;-79
2021/01/02 09:36:31;;;;;;;26.50;16.73;;;4.50;77.60;;;;;;5032548;28;20434;-80
2021/01/02 09:38:56;;;;;;;23.40;12.60;;;4.50;76.80;;;;;;5032483;28;20030;-80
2021/01/02 09:41:24;;;;;;;27.70;16.10;;;4.60;77.10;;;;;;5033924;28;20053;-80
2021/01/02 09:43:53;;;;;;;13.75;7.95;;;4.50;75.70;;;;;;5032498;28;20095;-80
2021/01/02 09:46:20;;;;;;;15.52;12.00;;;4.60;76.30;;;;;;5032432;28;20542;-80
2021/01/02 09:48:53;;;;;;;10.75;7.43;;;4.60;75.90;;;;;;5031703;28;20052;-80
2021/01/02 09:51:22;;;;;;;13.80;8.30;;;4.60;75.50;;;;;;5031863;28;20025;-80
2021/01/02 09:53:49;;;;;;;12.25;7.57;;;4.70;75.90;;;;;;5032020;28;20033;-80
2021/01/02 09:56:15;;;;;;;14.02;7.78;;;4.70;76.10;;;;;;5031515;28;20069;-80
2021/01/02 09:58:42;;;;;;;20.33;12.63;;;4.70;75.40;;;;;;5031868;28;20493;-81
2021/01/02 10:01:08;;;;;;;15.57;10.30;;;4.80;75.20;;;;;;5031680;28;20502;-81
2021/01/02 10:03:34;;;;;;;21.50;13.98;;;4.80;74.70;;;;;;5031714;28;20025;-80
2021/01/02 10:06:00;;;;;;;30.85;17.63;;;4.80;75.20;;;;;;5031901;28;20117;-79
2021/01/02 10:08:26;;;;;;;23.25;15.10;;;4.90;75.10;;;;;;5033022;28;20022;-80
2021/01/02 10:10:52;;;;;;;20.60;13.15;;;4.90;75.30;;;;;;5033048;28;20120;-79
2021/01/02 10:13:19;;;;;;;14.68;9.98;;;4.90;74.90;;;;;;5031581;28;20028;-80
2021/01/02 10:15:45;;;;;;;13.68;8.93;;;5.00;75.10;;;;;;5032836;28;20430;-81
2021/01/02 10:18:11;;;;;;;12.43;8.15;;;5.00;75.00;;;;;;5031604;28;20017;-80
2021/01/02 10:20:38;;;;;;;14.43;8.23;;;5.10;74.80;;;;;;5032882;28;20018;-81
2021/01/02 10:23:03;;;;;;;21.35;11.57;;;5.10;74.70;;;;;;5031840;28;20102;-79
2021/01/02 10:25:29;;;;;;;15.40;10.20;;;5.10;74.30;;;;;;5032302;28;20471;-81
2021/01/02 10:27:55;;;;;;;13.43;8.18;;;5.10;74.90;;;;;;5031965;28;20090;-80
2021/01/02 10:30:21;;;;;;;12.77;7.57;;;5.20;74.80;;;;;;5031460;28;20030;-80
2021/01/02 10:32:46;;;;;;;11.43;7.65;;;5.20;74.50;;;;;;5031580;28;20049;-80
2021/01/02 10:35:15;;;;;;;10.25;6.70;;;5.20;74.00;;;;;;5031443;28;20065;-80
2021/01/02 10:37:41;;;;;;;10.15;6.90;;;5.30;74.20;;;;;;5031854;28;20049;-80
2021/01/02 10:40:08;;;;;;;9.55;6.60;;;5.30;74.50;;;;;;5035309;28;20060;-80
2021/01/02 10:42:35;;;;;;;12.45;6.82;;;5.30;73.90;;;;;;5035258;28;20030;-80
2021/01/02 10:45:01;;;;;;;9.10;6.28;;;5.40;74.00;;;;;;5036074;28;20022;-81
2021/01/02 10:47:29;;;;;;;9.95;6.90;;;5.50;73.60;;;;;;5035537;28;20477;-80
2021/01/02 10:49:55;;;;;;;14.77;8.43;;;5.50;73.60;;;;;;5035462;28;20033;-81
2021/01/02 10:52:23;;;;;;;14.07;7.22;;;5.50;73.00;;;;;;5035619;28;20049;-80
2021/01/02 10:54:50;;;;;;;11.52;7.72;;;5.50;73.50;;;;;;5035475;28;20049;-80
2021/01/02 10:57:18;;;;;;;14.48;7.88;;;5.50;73.60;;;;;;5035535;28;20497;-80
2021/01/02 10:59:45;;;;;;;13.30;8.50;;;5.60;73.40;;;;;;5035534;28;20029;-80
2021/01/02 11:02:12;;;;;;;15.30;11.07;;;5.50;72.70;;;;;;5036745;28;20083;-79
2021/01/02 11:04:38;;;;;;;19.05;13.90;;;5.50;73.00;;;;;;5038388;28;20074;-79
2021/01/02 11:07:05;;;;;;;14.00;9.10;;;5.60;73.20;;;;;;5035708;28;20061;-81
2021/01/02 11:09:31;;;;;;;13.32;9.48;;;5.70;73.00;;;;;;5036867;28;20017;-79
2021/01/02 11:11:57;;;;;;;11.65;7.38;;;5.70;73.30;;;;;;5035687;28;20033;-80
2021/01/02 11:14:23;;;;;;;17.08;10.68;;;5.70;73.30;;;;;;5035171;28;20099;-80
2021/01/02 11:16:49;;;;;;;43.83;34.47;;;5.80;73.00;;;;;;5036438;28;20025;-81
2021/01/02 11:19:27;;;;;;;16.67;11.70;;;5.80;72.00;;;;;;5035348;28;20030;-79
2021/01/02 11:21:55;;;;;;;45.55;27.55;;;5.80;72.00;;;;;;5035093;28;20027;-81
2021/01/02 11:24:23;;;;;;;29.83;16.45;;;5.90;72.00;;;;;;5035072;28;20056;-81
2021/01/02 11:26:52;;;;;;;48.92;28.98;;;5.90;71.90;;;;;;5035005;28;20021;-80
2021/01/02 11:29:20;;;;;;;15.07;9.93;;;5.90;71.80;;;;;;5034930;28;20083;-80
2021/01/02 11:31:46;;;;;;;131.18;80.65;;;5.90;72.30;;;;;;5034745;28;20056;-81
2021/01/02 11:34:13;;;;;;;44.35;24.75;;;5.90;72.20;;;;;;5035216;28;20040;-81
2021/01/02 11:36:40;;;;;;;64.28;39.80;;;6.00;72.10;;;;;;5034796;28;20029;-80
2021/01/02 11:39:07;;;;;;;28.50;19.88;;;6.00;72.40;;;;;;5034787;28;20025;-81
2021/01/02 11:41:37;;;;;;;16.48;10.93;;;6.00;71.80;;;;;;5034739;28;20025;-81
2021/01/02 11:44:05;;;;;;;16.58;8.85;;;6.00;71.50;;;;;;5034653;28;20076;-81
2021/01/02 11:46:39;;;;;;;14.25;8.23;;;6.00;71.40;;;;;;5035831;28;20034;-81
2021/01/02 11:49:08;;;;;;;15.25;9.13;;;6.00;71.80;;;;;;5033804;28;20025;-80
2021/01/02 11:51:34;;;;;;;14.70;8.68;;;6.10;72.30;;;;;;5035236;28;20111;-80
2021/01/02 11:54:00;;;;;;;12.55;7.47;;;6.10;72.50;;;;;;5035242;28;20056;-81
2021/01/02 11:56:27;;;;;;;14.25;9.07;;;6.20;72.00;;;;;;5033694;28;20081;-80
2021/01/02 11:58:55;;;;;;;14.55;9.20;;;6.20;72.30;;;;;;5034068;28;20469;-81
2021/01/02 12:01:22;;;;;;;11.07;7.43;;;6.20;71.80;;;;;;5033863;28;20028;-81
2021/01/02 12:03:48;;;;;;;12.52;7.82;;;6.20;71.70;;;;;;5034103;28;20471;-80
2021/01/02 12:06:14;;;;;;;13.18;8.02;;;6.20;72.20;;;;;;5067227;28;20040;-81
2021/01/02 12:08:40;;;;;;;15.43;9.30;;;6.30;72.20;;;;;;5033733;28;20482;-80
2021/01/02 12:11:06;;;;;;;24.20;16.45;;;6.30;72.20;;;;;;5033889;28;20029;-81
2021/01/02 12:13:39;;;;;;;16.88;11.35;;;6.30;72.10;;;;;;5034132;28;20029;-82
2021/01/02 12:16:06;;;;;;;16.67;11.52;;;6.30;71.10;;;;;;5034765;28;20033;-81
2021/01/02 12:18:32;;;;;;;18.13;12.20;;;6.30;71.60;;;;;;5034863;28;20067;-81
2021/01/02 12:20:58;;;;;;;13.20;8.68;;;6.30;71.60;;;;;;5033543;28;20025;-81
2021/01/02 12:23:24;;;;;;;11.07;8.00;;;6.30;72.00;;;;;;5033666;28;20029;-80
2021/01/02 12:25:50;;;;;;;14.25;8.60;;;6.30;72.40;;;;;;5033329;28;20025;-81
2021/01/02 12:28:16;;;;;;;19.90;9.38;;;6.30;71.90;;;;;;5033382;28;20390;-81
2021/01/02 12:30:42;;;;;;;17.10;10.65;;;6.40;71.90;;;;;;5033277;28;20463;-81
2021/01/02 12:33:07;;;;;;;18.38;9.95;;;6.40;72.00;;;;;;5033170;28;20029;-81
2021/01/02 12:35:33;;;;;;;23.77;13.15;;;6.40;71.70;;;;;;5033293;28;20660;-81
2021/01/02 12:37:59;;;;;;;16.88;9.82;;;6.40;71.80;;;;;;5033268;28;20021;-81
2021/01/02 12:40:25;;;;;;;17.33;9.90;;;6.30;71.40;;;;;;5033132;28;20025;-80
2021/01/02 12:42:50;;;;;;;33.35;15.88;;;6.30;71.50;;;;;;5033124;28;20022;-81
2021/01/02 12:45:16;;;;;;;49.38;26.05;;;6.30;71.80;;;;;;5033286;28;20018;-81
2021/01/02 12:47:42;;;;;;;21.13;11.73;;;6.30;71.90;;;;;;5034556;28;20048;-81
2021/01/02 12:50:10;;;;;;;16.35;9.68;;;6.30;72.10;;;;;;5035006;28;20072;-80
2021/01/02 12:52:35;;;;;;;18.13;11.55;;;6.30;72.50;;;;;;5034493;28;20029;-81
2021/01/02 12:55:02;;;;;;;31.25;18.27;;;6.30;72.70;;;;;;5035361;28;20049;-81
2021/01/02 12:57:28;;;;;;;32.55;19.83;;;6.30;72.60;;;;;;5033371;28;20427;-81
2021/01/02 12:59:55;;;;;;;52.45;33.33;;;6.30;72.60;;;;;;5033220;28;20018;-80
2021/01/02 13:02:22;;;;;;;41.55;26.63;;;6.30;72.60;;;;;;5033361;28;20459;-81
2021/01/02 13:04:49;;;;;;;23.88;14.85;;;6.30;73.10;;;;;;5033361;28;20029;-81